Time;durP1;ratioP1;P1;durP2;ratioP2;P2;SDS_P1;SDS_P2;PMS_P1;PMS_P2;Temp;Humidity;BMP_temperature;BMP_pressure;BME280_temperature;BME280_humidity;BME280_pressure;Samples;Min_cycle;Max_cycle;Signal;HPM_P1;HPM_P2
2021/09/05 00:07:20;;;;;;;13.17;5.60;;;;;;;9.54;100.00;101256.08;715877;1200;114557;-79
2021/09/05 00:22:22;;;;;;;17.98;7.03;;;;;;;9.37;100.00;101259.84;716055;1200;114344;-79
2021/09/05 00:37:24;;;;;;;13.27;6.13;;;;;;;9.11;100.00;101269.44;716047;1176;113949;-79
2021/09/05 00:52:27;;;;;;;8.65;3.90;;;;;;;8.85;100.00;101284.23;716026;1205;115601;-78
2021/09/05 01:07:31;;;;;;;12.88;5.75;;;;;;;8.68;100.00;101286.14;715915;1200;115432;-78
2021/09/05 01:22:35;;;;;;;24.48;9.58;;;;;;;8.49;100.00;101303.01;715985;1202;115542;-79
2021/09/05 01:37:37;;;;;;;9.85;6.03;;;;;;;8.30;100.00;101303.30;715914;1204;113895;-78
2021/09/05 01:52:39;;;;;;;15.23;6.43;;;;;;;8.17;100.00;101315.46;715973;1174;113547;-79
2021/09/05 02:07:41;;;;;;;11.13;6.43;;;;;;;7.99;100.00;101331.31;715968;1200;113826;-78
2021/09/05 02:22:44;;;;;;;11.85;6.15;;;;;;;7.73;100.00;101353.77;716058;1200;114505;-79
2021/09/05 02:37:46;;;;;;;16.20;6.90;;;;;;;7.64;100.00;101351.70;716041;1199;114578;-79
2021/09/05 02:52:48;;;;;;;16.20;7.37;;;;;;;7.32;100.00;101360.49;716018;1199;115010;-78
2021/09/05 03:07:50;;;;;;;22.73;10.58;;;;;;;7.22;100.00;101368.91;716288;1200;115189;-78
2021/09/05 03:22:53;;;;;;;14.53;7.40;;;;;;;7.08;100.00;101377.53;715911;1199;115678;-79
2021/09/05 03:37:55;;;;;;;21.10;10.10;;;;;;;6.64;100.00;101390.32;715736;1199;115357;-78
2021/09/05 03:52:57;;;;;;;17.05;8.08;;;;;;;6.46;100.00;101386.92;715774;1199;115799;-78
2021/09/05 04:23:07;;;;;;;13.40;7.40;;;;;;;6.73;100.00;101415.07;716089;1200;114421;-79
2021/09/05 04:38:09;;;;;;;14.68;8.13;;;;;;;6.84;100.00;101424.92;715969;1199;114821;-76
2021/09/05 04:53:11;;;;;;;26.35;12.70;;;;;;;6.79;100.00;101447.80;716082;1200;114178;-80
2021/09/05 05:08:13;;;;;;;29.98;14.18;;;;;;;7.08;100.00;101476.69;715830;1200;114752;-77
2021/09/05 05:23:17;;;;;;;17.65;10.55;;;;;;;7.54;100.00;101473.31;715747;1199;115083;-76
2021/09/05 05:38:19;;;;;;;16.27;8.53;;;;;;;8.09;100.00;101498.88;715992;1200;114122;-76
2021/09/05 05:53:21;;;;;;;17.85;10.73;;;;;;;8.72;100.00;101504.77;715815;1177;114332;-76
2021/09/05 06:08:23;;;;;;;12.68;7.15;;;;;;;9.64;100.00;101518.28;715909;1203;114078;-72
2021/09/05 06:23:25;;;;;;;11.10;6.40;;;;;;;10.60;100.00;101520.69;715668;1200;113899;-72
2021/09/05 06:38:28;;;;;;;17.48;9.05;;;;;;;11.61;100.00;101527.63;715692;1200;115541;-78
2021/09/05 06:53:30;;;;;;;10.18;6.38;;;;;;;12.89;100.00;101540.88;716117;1200;114805;-78
2021/09/05 07:08:33;;;;;;;8.60;5.47;;;;;;;14.74;100.00;101555.84;716251;1199;114229;-79
2021/09/05 07:23:35;;;;;;;4.13;2.10;;;;;;;15.72;100.00;101553.50;716271;1200;114479;-78
2021/09/05 07:38:37;;;;;;;6.63;3.65;;;;;;;16.92;96.51;101579.56;716166;1182;113286;-77
2021/09/05 07:53:39;;;;;;;3.23;1.50;;;;;;;17.79;92.76;101595.16;715778;1200;114213;-75
2021/09/05 08:08:42;;;;;;;4.90;1.45;;;;;;;18.57;85.17;101606.94;715925;1176;113817;-76
2021/09/05 08:23:44;;;;;;;2.53;1.38;;;;;;;18.42;83.43;101615.48;715709;1199;113969;-75
2021/09/05 08:38:47;;;;;;;1.15;0.85;;;;;;;18.91;78.11;101614.13;716479;1203;114266;-77
2021/09/05 08:53:49;;;;;;;2.30;1.70;;;;;;;18.98;72.63;101631.14;715837;1200;114175;-77
2021/09/05 09:08:57;;;;;;;1.97;1.43;;;;;;;20.18;69.25;101631.02;716588;1203;114209;-73
2021/09/05 09:24:09;;;;;;;1.58;1.05;;;;;;;21.21;65.98;101632.19;715842;1200;113575;-78
2021/09/05 09:39:15;;;;;;;3.38;1.30;;;;;;;21.85;64.92;101625.03;715937;1177;113676;-79
2021/09/05 09:54:17;;;;;;;1.50;1.10;;;;;;;22.64;62.24;101619.38;717916;1199;113646;-77
2021/09/05 10:09:21;;;;;;;1.70;1.35;;;;;;;22.60;60.59;101623.43;716022;1200;114600;-72
2021/09/05 10:24:24;;;;;;;3.10;2.30;;;;;;;21.20;60.49;101611.02;716099;1174;114302;-75
2021/09/05 10:39:26;;;;;;;1.57;1.00;;;;;;;22.54;57.03;101590.24;717037;1176;114631;-73
2021/09/05 10:54:28;;;;;;;2.05;1.20;;;;;;;23.85;56.58;101586.89;716825;1203;114211;-74
2021/09/05 11:09:31;;;;;;;2.67;0.77;;;;;;;23.76;53.50;101591.54;716100;1176;113838;-75
2021/09/05 11:24:34;;;;;;;2.50;0.73;;;;;;;24.51;52.17;101587.66;715593;1199;115460;-74
2021/09/05 11:39:36;;;;;;;0.80;0.70;;;;;;;24.96;51.62;101581.95;715390;1199;115241;-74
2021/09/05 11:54:38;;;;;;;0.88;0.75;;;;;;;24.96;49.52;101580.08;715192;1200;113817;-75
2021/09/05 12:09:40;;;;;;;0.55;0.55;;;;;;;23.62;49.70;101579.03;715163;1176;113800;-74
2021/09/05 12:24:54;;;;;;;3.05;1.80;;;;;;;23.73;49.66;101569.69;715580;1200;113871;-74
2021/09/05 12:40:14;;;;;;;3.00;0.80;;;;;;;24.89;48.40;101558.58;715456;1200;115491;-73
2021/09/05 12:55:16;;;;;;;3.78;1.80;;;;;;;23.12;47.86;101556.63;715308;1200;115295;-74
2021/09/05 13:10:19;;;;;;;6.10;2.53;;;;;;;23.07;50.18;101560.70;715285;1175;113747;-76
2021/09/05 13:25:22;;;;;;;2.37;0.87;;;;;;;24.79;47.41;101552.75;715525;1200;114080;-76
2021/09/05 13:40:24;;;;;;;1.28;1.10;;;;;;;23.69;46.70;101546.95;715425;1200;113666;-75
2021/09/05 13:55:26;;;;;;;11.25;6.18;;;;;;;22.70;49.01;101546.45;715468;1203;114662;-75
2021/09/05 14:10:28;;;;;;;0.68;0.60;;;;;;;28.92;47.59;101551.72;715763;1199;114634;-76
2021/09/05 14:25:31;;;;;;;1.95;1.30;;;;;;;37.10;40.68;101537.13;715666;1184;113800;-76
2021/09/05 14:55:56;;;;;;;2.50;1.33;;;;;;;37.11;35.19;101525.09;715749;1200;113717;-76
2021/09/05 15:11:07;;;;;;;2.43;1.57;;;;;;;31.50;37.43;101509.56;716054;1200;113949;-76
2021/09/05 15:26:13;;;;;;;2.40;1.67;;;;;;;24.92;42.35;101515.23;715811;1177;113808;-76
2021/09/05 15:56:36;;;;;;;11.13;8.40;;;;;;;25.39;45.46;101518.09;715894;1200;115035;-78
2021/09/05 16:27:00;;;;;;;29.10;15.97;;;;;;;21.31;48.32;101505.72;715976;1177;114295;-77
2021/09/05 16:42:02;;;;;;;8.08;4.90;;;;;;;19.66;51.72;101509.61;715926;1199;115849;-77
2021/09/05 16:57:06;;;;;;;97.90;38.15;;;;;;;18.21;54.45;101519.35;715887;1176;113815;-77
2021/09/05 17:12:08;;;;;;;22.90;14.08;;;;;;;17.28;56.67;101531.11;715916;1199;113529;-79
2021/09/05 17:27:13;;;;;;;42.45;18.88;;;;;;;16.68;58.93;101536.80;715946;1200;114381;-80
2021/09/05 17:42:15;;;;;;;70.25;33.25;;;;;;;16.08;60.86;101554.63;715961;1176;114648;-78
2021/09/05 17:57:18;;;;;;;75.63;41.93;;;;;;;15.47;63.01;101558.33;715915;1200;114022;-77
2021/09/05 18:12:21;;;;;;;75.15;42.63;;;;;;;14.92;65.55;101571.92;716069;1206;114697;-78
2021/09/05 18:27:24;;;;;;;17.78;10.50;;;;;;;14.36;67.33;101575.73;715948;1177;114739;-77
2021/09/05 18:42:26;;;;;;;123.15;43.78;;;;;;;13.85;68.60;101585.22;716045;1202;115978;-77
2021/09/05 18:57:32;;;;;;;42.80;16.20;;;;;;;13.50;69.74;101583.61;715796;1174;114372;-72
2021/09/05 19:12:41;;;;;;;90.25;35.43;;;;;;;13.12;72.52;101575.13;715740;1202;115489;-76
2021/09/05 19:27:44;;;;;;;120.00;50.73;;;;;;;12.67;74.92;101596.15;715997;1199;114130;-77
2021/09/05 19:42:46;;;;;;;120.63;49.50;;;;;;;12.26;76.51;101593.91;716601;1200;115094;-78
2021/09/05 19:57:48;;;;;;;123.07;55.03;;;;;;;11.99;79.02;101608.13;717110;1175;114429;-77
2021/09/05 20:12:50;;;;;;;93.40;41.08;;;;;;;11.78;79.53;101594.72;716981;1177;114967;-77
2021/09/05 20:27:53;;;;;;;74.43;34.38;;;;;;;11.48;81.00;101595.98;716679;1177;114505;-77
2021/09/05 20:42:56;;;;;;;116.85;50.30;;;;;;;11.32;81.48;101598.01;716307;1202;114632;-76
2021/09/05 20:57:58;;;;;;;104.47;52.53;;;;;;;11.09;83.09;101595.20;715958;1203;114734;-76
2021/09/05 21:13:01;;;;;;;97.65;37.00;;;;;;;10.84;84.05;101603.11;715909;1202;115212;-77
2021/09/05 21:28:06;;;;;;;82.50;35.13;;;;;;;10.57;84.46;101596.14;716041;1200;114976;-76
2021/09/05 21:43:08;;;;;;;91.50;36.08;;;;;;;10.42;86.12;101604.09;715875;1205;115333;-76
2021/09/05 21:58:11;;;;;;;38.17;16.23;;;;;;;10.14;86.81;101621.62;715695;1202;114219;-76
2021/09/05 22:13:13;;;;;;;52.85;19.03;;;;;;;10.01;87.71;101607.63;715642;1193;114004;-76
2021/09/05 22:28:15;;;;;;;18.28;9.20;;;;;;;9.86;88.15;101601.60;716513;1202;114428;-75
2021/09/05 22:43:21;;;;;;;22.25;9.98;;;;;;;9.51;87.94;101606.45;716475;1189;113837;-75
2021/09/05 22:58:23;;;;;;;39.80;16.90;;;;;;;9.39;88.66;101621.98;716232;1199;113620;-77
2021/09/05 23:13:25;;;;;;;26.95;11.75;;;;;;;9.08;88.73;101616.02;716556;1200;115404;-78
2021/09/05 23:28:27;;;;;;;33.65;12.90;;;;;;;8.94;89.93;101602.92;716360;1203;113718;-78
2021/09/05 23:43:30;;;;;;;38.77;15.13;;;;;;;8.67;90.28;101590.56;716350;1199;115280;-78
2021/09/05 23:58:32;;;;;;;49.65;19.55;;;;;;;8.57;90.90;101592.86;716282;1199;113676;-78
